Jean-Luc Lefebvre

Scout - Red Star
3 Dec 2028
Sunday
Process

Personality

Adaptability (8) Ambition (19) Controversy (4) Loyalty (4) Pressure (1) Professionalism (8) Sportsmanship (1) Temperament (5)

Profile

Coaching Style Democratic
License National A
Determination 7
Man Management 11
Motivating 4
Discipline 3
Job Satisfaction
100%
Fatigue
0%
Role Scout
Wage 19.7K p/w
Contract 14.03.2029

Performance

Behaviour Good
Training Effectiveness
29%
Player Development
45%
Injury Prevention
55%
Tactical Implementation
15%

Recent Events

Attended a recruitment meeting 14d ago
Attended a recruitment meeting 21d ago
Attended a recruitment meeting 28d ago
Attended a recruitment meeting 35d ago
Attended a recruitment meeting 42d ago
Attended a recruitment meeting 49d ago
Attended a recruitment meeting 56d ago
Recommended a transfer target 56d ago

Currently Monitoring

187
Player Club Status Ability Confidence Watched Last Observed Latest Vote
Peyton Miller New England Revolution Active 98 / 137 40% 1 14.08.2028 -
Fabio Rispoli Como Active 118 / 116 40% 1 14.08.2028 -
Diego Gaitán Maipú Active 129 / 132 40% 1 10.08.2028 -
Ousmane Coulibaly Stade Malien Active 104 / 103 40% 1 10.08.2028 -
Kwesi Sorotu Badori Berekum Chelsea Active 94 / 93 40% 1 08.08.2028 -
Djibrine Abakar Stars Jeunes Talents Active 58 / 71 40% 1 08.08.2028 -
Igor Tyjon Barrow AFC Active 118 / 131 40% 3 07.08.2028 -
Tomás Pozzo Godoy Cruz Active 141 / 113 40% 1 07.08.2028 -
Callum Wright Plymouth Argyle Active 126 / 110 40% 1 25.07.2028 -
Juan Sebastián Herrera Deportivo La Guaira Active 116 / 96 40% 1 22.07.2028 -
Darragh Burns Grimsby Town Active 116 / 118 40% 1 22.07.2028 -
Luca Meirelles Kudrivka Active 120 / 118 40% 1 20.07.2028 -
Jordan Gibson Cheltenham Town Active 118 / 111 40% 1 20.07.2028 -
Jon Eceizabarrena Real Sociedad Active 107 / 110 40% 1 19.07.2028 -
Aaron Morley Wycombe Wanderers Active 116 / 133 40% 1 19.07.2028 -
Diego Vargas Universidad de Concepcion Active 88 / 103 40% 3 18.07.2028 -
Gideon Manaseh Ikorodu City Active 84 / 89 40% 3 18.07.2028 -
Caylan Vickers Burton Albion Active 113 / 124 40% 1 18.07.2028 -
Fletcher Boyd Accrington Stanley Active 106 / 112 40% 1 18.07.2028 -
Jenson Metcalfe Bradford City Active 115 / 124 40% 1 16.07.2028 -
Mohamadou Kanté Crawley Town Active 132 / 124 40% 1 14.07.2028 -
Gabe Forsyth Colchester United Active 110 / 121 40% 1 14.07.2028 -
Leighton Clarkson Blackpool Active 135 / 129 40% 1 13.07.2028 -
Adam Phillips Northampton Town Active 125 / 120 40% 1 13.07.2028 -
Kyreece Lisbie Colchester United Active 117 / 109 40% 1 12.07.2028 -
Chiquinho Leixões Active 146 / 139 40% 1 12.07.2028 -
Daouda Coulibaly Stade Malien Active 95 / 98 40% 1 11.07.2028 -
Jan Bürger Northampton Town Active 116 / 128 40% 1 10.07.2028 -
Atsuki Ito Bolton Wanderers Active 140 / 129 40% 2 07.07.2028 -
Josh Benson Rotherham United Active 117 / 111 40% 2 05.07.2028 -
Kiani Inge Groningen Active 112 / 118 40% 2 04.07.2028 -
Tibe De Vlieger KAA Gent Active 109 / 127 40% 1 04.07.2028 -
Reyes Cleary Bromley Active 125 / 123 40% 1 04.07.2028 -
Kyle John Port Vale Active 114 / 111 40% 1 02.07.2028 -
Dennis Cirkin Queens Park Rangers Active 142 / 128 40% 1 28.06.2028 -
Ryan McAidoo Oldham Athletic Active 125 / 127 40% 1 28.06.2028 -
Thierry Gale Swindon Town Active 120 / 126 40% 1 27.06.2028 -
Flynn Downes Sheffield Wednesday Active 144 / 136 40% 1 27.06.2028 -
Arsene Mekila Gazelle Garoua Active 77 / 105 40% 5 26.06.2028 -
Richard Koné Queens Park Rangers Active 138 / 127 40% 1 24.06.2028 -
Jalen Blesa Oliveirense Active 122 / 134 40% 1 22.06.2028 -
James Dornelly Peterborough United Active 117 / 109 40% 1 22.06.2028 -
Odin Bailey Stockport County Active 119 / 112 40% 1 21.06.2028 -
Ben Wiles Milton Keynes Dons Active 126 / 118 40% 1 21.06.2028 -
Kevin Medina Mirandés Active 125 / 119 40% 1 15.06.2028 -
Isaac Monnier FC Lorient Active 93 / 109 40% 3 02.06.2028 -
Luis Otávio Orlando City Active 126 / 131 40% 1 02.06.2028 -
Jason Witsel PSV Active 129 / 122 40% 4 01.06.2028 -
Denis Grigorjev Arsenal Tula Active 81 / 107 40% 1 01.06.2028 -
Kelian Le Pironnec Mirandés Active 105 / 94 40% 6 31.05.2028 -
Olivier Leroux Mouscron Active 109 / 107 40% 4 31.05.2028 -
Filippo Manfrin Arzignano Active 111 / 113 40% 2 31.05.2028 -
Ludovico Del Sorbo Sorrento Active 113 / 133 40% 3 31.05.2028 -
George Hall Port Vale Active 123 / 121 40% 1 31.05.2028 -
Aliou Diakité Real Bamako Active 111 / 108 40% 1 31.05.2028 -
Maël Monyebe Gazelle Garoua Active 97 / 98 40% 2 30.05.2028 -
Ahmed Zaki Masr El Makasa Active 80 / 86 40% 1 30.05.2028 -
Frankarlos Benítez Caracas Active 131 / 119 40% 2 29.05.2028 -
Josh Nichols Oldham Athletic Active 122 / 126 40% 4 28.05.2028 -
Nko Ghangle Rattensi Victoria United Active 85 / 88 40% 1 28.05.2028 -
Itumeleng Grobler Free State Stars Active 112 / 98 40% 3 27.05.2028 -
Miguel Figueiredo Benfica Active 127 / 128 40% 2 27.05.2028 -
Amanuel Pellaers Racing Genk Active 83 / 108 40% 2 27.05.2028 -
Máximo Núñez Los Andes Active 85 / 99 40% 1 26.05.2028 -
Marius Louër Angers SCO Active 104 / 128 40% 1 26.05.2028 -
Anthony Cletus Bendel Insurance Active 97 / 99 40% 3 25.05.2028 -
Simone Suppa Virtus Verona Active 83 / 99 40% 2 22.05.2028 -
Ousmane Simpara Etoiles du Mande Active 97 / 118 40% 2 22.05.2028 -
Pavlo Isenko Universitatea Craiova Active 122 / 114 40% 1 22.05.2028 -
Nahuel González Alvarado Active 90 / 99 40% 1 22.05.2028 -
Sam Proctor Salford City Active 117 / 134 40% 3 20.05.2028 -
Adam Hrdina Zbrojovka Brno Active 131 / 121 40% 3 20.05.2028 -
Joe Whitworth Wigan Athletic Active 119 / 134 40% 2 19.05.2028 -
Davide Mastrantonio Latina Active 102 / 99 40% 1 19.05.2028 -
Kwame Nuhu Heart of Lions Active 81 / 86 40% 1 18.05.2028 -
Stanislav Bukatov Salyut Active 77 / 92 40% 1 17.05.2028 -
Matúš Sláviček AS Trencin Active 121 / 112 40% 1 17.05.2028 -
Andrés Macea Deportivo Pereira Active 89 / 104 40% 1 16.05.2028 -
Nicolò Moranduzzo Renate Active 95 / 100 40% 2 14.05.2028 -
Andrey Ivlev Nizhniy Novgorod Active 129 / 112 40% 2 14.05.2028 -
David Fernande PWD Bamenda Active 62 / 64 40% 2 13.05.2028 -
Mateo Albornoz Castellón Active 97 / 102 40% 2 11.05.2028 -
Stephen McMullan Fleetwood Town Active 97 / 118 40% 2 11.05.2028 -
Ifeanyi Emmanuel Niger Tornadoes Active 113 / 120 40% 3 09.05.2028 -
Luca Pausé Groningen Active 99 / 112 40% 1 09.05.2028 -
Joel Ezra Enyimba Active 113 / 117 40% 2 08.05.2028 -
Roman Zhoglo Birkirkara Active 96 / 95 40% 1 08.05.2028 -
Alvin Binsto PWD Bamenda Active 102 / 82 40% 1 08.05.2028 -
Amine Boukamir Charleroi Active 105 / 112 40% 3 07.05.2028 -
Daniel Banjaqui Benfica Active 125 / 131 40% 3 07.05.2028 -
Sergio Barlocco Trento Active 126 / 124 40% 3 06.05.2028 -
Aboubacar Meïté Afrique Foot Elite Active 89 / 108 40% 2 06.05.2028 -
Mikhail Gaidash Spartak Kostroma Active 100 / 102 40% 2 05.05.2028 -
Destiny Geneneke PWD Bamenda Active 92 / 100 40% 1 04.05.2028 -
Kamaldeen Atiemo Wa All Stars Active 96 / 113 40% 2 03.05.2028 -
Cristian Santander Barranquilla Active 132 / 109 40% 2 02.05.2028 -
Leon Borković Irkutsk Active 75 / 94 40% 1 02.05.2028 -
Maxim Shichanin Zenit Active 99 / 112 40% 4 28.04.2028 -
Matteo Raffaelli Ascoli Active 113 / 121 40% 2 28.04.2028 -
Tobías Ramírez River Plate Active 131 / 127 40% 1 28.04.2028 -
Konta Ismaily Active 99 / 106 40% 3 27.04.2028 -
Robert Cook Accrington Stanley Active 108 / 122 40% 1 27.04.2028 -
Luca Martelli Forli Active 101 / 91 40% 2 25.04.2028 -
Andy Ezekiel Petrojet Active 92 / 105 40% 3 24.04.2028 -
George Evans Exeter City Active 121 / 123 40% 2 23.04.2028 -
Facundo Vila Estudiantes Active 126 / 127 40% 2 23.04.2028 -
Thijs Kraaijeveld USM Alger Active 122 / 129 40% 2 23.04.2028 -
Alessio Insignito Spezia Active 108 / 103 40% 1 22.04.2028 -
Gregory Sekyere Aduana Stars Active 114 / 83 40% 1 21.04.2028 -
Gael Moreno Morelia Active 57 / 87 40% 1 21.04.2028 -
Kubrat Onasci Septemvri Active 98 / 109 40% 1 21.04.2028 -
Matthew Rowley Reading Active 99 / 96 40% 1 20.04.2028 -
Kamiel Timmermans Anderlecht Active 87 / 101 40% 1 19.04.2028 -
Emeka Kelvin Agu Sliema Wanderers Active 86 / 96 40% 1 19.04.2028 -
Thato Sibiya Orlando Pirates Active 118 / 118 40% 1 19.04.2028 -
Gabriele Baldi Guidonia Montecelio Active 106 / 122 40% 2 18.04.2028 -
Bernardo Lima Porto Active 100 / 107 40% 2 18.04.2028 -
Lisandro Musso Central Córdoba SdE Active 98 / 106 40% 1 18.04.2028 -
Themba Modiba Black Aces Active 82 / 88 40% 1 18.04.2028 -
Alejo Medina Agropecuario Argentino Active 116 / 113 40% 1 17.04.2028 -
Gladson Amoah Liberty Professionals Active 114 / 85 40% 1 16.04.2028 -
Pierre Ikong Dynamo Douala Active 77 / 101 40% 1 16.04.2028 -
Ezechiel Djimet AS Algoy Active 66 / 77 40% 1 16.04.2028 -
Mate Modric Zadar Active 137 / 121 40% 1 15.04.2028 -
Nour Ashraf ENPPI Active 91 / 89 40% 1 15.04.2028 -
Matvey Bardachev Zenit Active 94 / 103 40% 2 14.04.2028 -
Riquelme Thompson-Jones Accrington Stanley Active 107 / 108 40% 2 13.04.2028 -
Filip Marschall Stevenage Active 118 / 135 40% 2 13.04.2028 -
Augusto Bando Ascoli Active 101 / 110 40% 1 11.04.2028 -
Killian Cahill Leyton Orient Active 118 / 106 40% 2 10.04.2028 -
Artem Nosachev Spartak Moscow Active 79 / 70 40% 1 10.04.2028 -
Andrea Sergio Mazza Giana Erminio Active 98 / 100 40% 3 09.04.2028 -
Marc Colin Tours Active 121 / 118 40% 1 08.04.2028 -
Zoltan Kleinheisler Haladas Active 110 / 106 40% 1 07.04.2028 -
Claudio Martey Pianese Active 85 / 99 40% 1 06.04.2028 -
Jack Wint Sibenik Active 88 / 91 40% 1 06.04.2028 -
Diego Bolaños Veracruz Active 81 / 105 40% 1 05.04.2028 -
Martim Cunha Porto Active 115 / 102 40% 1 03.04.2028 -
Ali Ishaku Abia Warriors Active 109 / 118 40% 1 31.03.2028 -
Tyler Fletcher Rotherham United Active 101 / 107 40% 3 29.03.2028 -
Stefan Mitrović Zeleznicar Pancevo Active 103 / 82 40% 1 25.03.2028 -
Ismaël Fansu Unisport Bafang Active 73 / 83 40% 2 24.03.2028 -
Idrissa Sabaly Valenciennes Active 88 / 115 40% 2 24.03.2028 -
Khama Mabunda Platinum Stars Active 83 / 69 40% 2 23.03.2028 -
Ahmat Doungous Gazelle Active 44 / 56 40% 1 23.03.2028 -
Jakub Badžgoň MSK Zilina Active 104 / 116 40% 1 22.03.2028 -
Lior Mashansky Foullah Edifice Active 64 / 58 40% 2 21.03.2028 -
Ahmat Abba AS Etat Major Active 75 / 58 40% 1 21.03.2028 -
Ronan Kpakio AC Milan Active 134 / 134 40% 1 20.03.2028 -
Nikita Yanovich Tyumen Active 116 / 89 40% 1 19.03.2028 -
Dmitry Loktev Rotor Active 49 / 46 40% 1 18.03.2028 -
Antonino Viola Catania Active 112 / 108 40% 1 16.03.2028 -
Alain Zadi Sarpsborg 08 Active 101 / 101 40% 1 16.03.2028 -
James Tendoh Canon Yaounde Active 82 / 73 40% 1 16.03.2028 -
Tobiáš Pališčák Zlin Active 101 / 123 40% 1 06.03.2028 -
Isaías Silva Miramar Misiones Active 74 / 101 40% 2 31.12.2027 -
David Damboama El-Kanemi Warriors Active 79 / 85 40% 3 31.12.2027 -
Olaniyi Saheed Kwara United Active 87 / 98 40% 1 27.12.2027 -
Lucas Nicol Mjondalen Active 79 / 89 40% 2 26.12.2027 -
Esquerdinha Notts County Active 126 / 137 40% 3 26.12.2027 -
Melvin Vučenović Persson Atvidaberg Active 85 / 95 40% 3 25.12.2027 -
Francisco Machis Llaneros Active 93 / 101 40% 2 24.12.2027 -
Lucas Camejo River Plate Active 70 / 105 40% 5 20.12.2027 -
Tiago Gordillo San Miguel Active 94 / 105 40% 2 15.12.2027 -
Onyeuche Ujunwa Ikorodu City Active 86 / 107 40% 6 14.12.2027 -
Hosea Michael Remo Stars Active 101 / 94 40% 3 12.12.2027 -
Ivan Borges Defensores Active 85 / 106 40% 5 09.12.2027 -
Nazareno Roselli Defensa y Justicia Active 116 / 121 40% 1 09.12.2027 -
Yury Oyarzo Racing Active 98 / 108 40% 1 06.12.2027 -
Godswill Kenu Bayelsa United Active 67 / 80 40% 1 06.12.2027 -
Nicolas Sport Recife Active 100 / 124 40% 1 03.12.2027 -
Bogard Agbor PWD Bamenda Active 65 / 86 40% 1 30.11.2027 -
Juan Camilo Córdoba Deportivo Pereira Active 81 / 104 40% 1 29.11.2027 -
Agustín Obregón River Plate Active 126 / 119 40% 2 21.11.2027 -
Mohamed Moussa Koïta Mathare United Active 110 / 113 40% 1 21.11.2027 -
Mohammed Habib Sarwari Kariobangi Sharks Active 57 / 67 40% 1 12.11.2027 -
Matys Donavin AC Ajaccio Active 93 / 103 40% 1 09.11.2027 -
Ignacio Fernández Boston River Active 97 / 102 40% 1 08.11.2027 -
Daniel Idoko Ikorodu City Active 89 / 100 40% 2 05.11.2027 -
Idriss Ashiru Kariobangi Sharks Active 60 / 72 40% 2 04.11.2027 -
Nahuel Leivas Montevideo City Torque Active 114 / 104 40% 1 04.11.2027 -
Adrian Skogmar Malmo FF Active 122 / 107 40% 1 19.10.2027 -
Juan Diego Perdomo Depor Active 95 / 107 40% 2 18.10.2027 -
Esteban de Lima Tacuarembo Active 99 / 111 40% 1 17.10.2027 -
Fallou Fall Olympique Lyonnais Active 97 / 89 58% 1 21.06.2027 -
Georges Gomis Le Havre AC Active 102 / 120 58% 1 14.06.2027 -
Rocco Vata Watford Active 128 / 135 40% 1 31.12.2026 -